Time;durP1;ratioP1;P1;durP2;ratioP2;P2;SDS_P1;SDS_P2;PMS_P1;PMS_P2;Temp;Humidity;BMP_temperature;BMP_pressure;BME280_temperature;BME280_humidity;BME280_pressure;Samples;Min_cycle;Max_cycle;Signal;HPM_P1;HPM_P2
2022/08/24 00:01:21;;;;;;;11.38;7.57;;;;;;;20.54;99.22;101676.38;5035569;28;20025;-69
2022/08/24 00:03:47;;;;;;;10.68;7.75;;;;;;;20.51;99.16;101675.00;5035491;28;20047;-69
2022/08/24 00:06:18;;;;;;;12.00;7.43;;;;;;;20.37;100.00;101673.66;5035487;28;20057;-69
2022/08/24 00:08:44;;;;;;;13.00;7.45;;;;;;;20.29;100.00;101685.28;5034265;28;20029;-69
2022/08/24 00:11:10;;;;;;;13.73;8.15;;;;;;;20.29;100.00;101681.88;5034089;28;20025;-68
2022/08/24 00:13:37;;;;;;;13.48;8.05;;;;;;;20.35;100.00;101685.41;5035411;28;20044;-69
2022/08/24 00:16:04;;;;;;;11.52;7.10;;;;;;;20.41;100.00;101682.66;5035278;28;20075;-70
2022/08/24 00:18:30;;;;;;;12.02;7.85;;;;;;;20.42;100.00;101686.06;5035292;28;20389;-70
2022/08/24 00:20:55;;;;;;;16.13;7.95;;;;;;;20.44;100.00;101681.41;5034044;28;20028;-70
2022/08/24 00:23:21;;;;;;;12.90;7.65;;;;;;;20.28;100.00;101683.72;5035251;28;20029;-70
2022/08/24 00:25:46;;;;;;;13.60;8.10;;;;;;;20.17;100.00;101670.56;5033839;28;20464;-70
2022/08/24 00:28:12;;;;;;;15.32;8.23;;;;;;;20.26;100.00;101670.00;5035086;28;20021;-70
2022/08/24 00:30:37;;;;;;;12.32;7.93;;;;;;;20.32;100.00;101670.13;5035098;28;20032;-69
2022/08/24 00:33:02;;;;;;;11.48;7.07;;;;;;;20.33;100.00;101675.13;5033666;28;20389;-70
2022/08/24 00:35:28;;;;;;;11.85;7.25;;;;;;;20.21;100.00;101671.72;5035052;28;20084;-69
2022/08/24 00:37:54;;;;;;;11.05;6.85;;;;;;;20.18;100.00;101672.97;5034850;28;20036;-69
2022/08/24 00:40:24;;;;;;;13.40;7.00;;;;;;;20.29;100.00;101674.78;5034830;28;20525;-69
2022/08/24 00:42:50;;;;;;;10.32;6.78;;;;;;;20.21;100.00;101675.13;5034766;28;20025;-70
2022/08/24 00:45:17;;;;;;;12.35;7.38;;;;;;;20.21;100.00;101679.59;5034783;28;20037;-70
2022/08/24 00:47:48;;;;;;;13.10;6.93;;;;;;;20.24;100.00;101684.38;5034573;28;20547;-70
2022/08/24 00:50:21;;;;;;;10.73;7.20;;;;;;;20.20;100.00;101676.19;5034644;28;20087;-70
2022/08/24 00:52:55;;;;;;;11.70;6.97;;;;;;;20.18;100.00;101680.06;5034567;28;20516;-68
2022/08/24 00:55:27;;;;;;;12.50;6.35;;;;;;;20.14;100.00;101679.72;5034564;28;20029;-70
2022/08/24 00:57:58;;;;;;;11.82;6.63;;;;;;;20.12;100.00;101673.88;5033153;28;20117;-70
2022/08/24 01:00:30;;;;;;;11.50;6.53;;;;;;;20.06;100.00;101677.44;5033253;28;20040;-70
2022/08/24 01:03:00;;;;;;;9.45;6.30;;;;;;;20.11;100.00;101685.41;5034580;28;20025;-70
2022/08/24 01:05:25;;;;;;;9.57;6.18;;;;;;;20.02;100.00;101668.41;5034443;28;20032;-70
2022/08/24 01:07:51;;;;;;;8.50;5.80;;;;;;;19.93;100.00;101669.78;5034425;28;20381;-70
2022/08/24 01:10:20;;;;;;;9.82;6.18;;;;;;;19.95;100.00;101665.09;5034099;28;20033;-70
2022/08/24 01:12:49;;;;;;;9.27;6.22;;;;;;;19.99;100.00;101672.28;5034269;28;20017;-70
2022/08/24 01:15:15;;;;;;;10.25;6.47;;;;;;;20.04;100.00;101663.72;5033038;28;20029;-70
2022/08/24 01:20:25;;;;;;;13.30;5.32;;;;;;;20.01;100.00;101661.56;5034312;28;20507;-70
2022/08/24 01:23:01;;;;;;;10.38;5.72;;;;;;;20.10;99.67;101662.81;5034065;28;20021;-70
2022/08/24 01:25:28;;;;;;;7.35;5.20;;;;;;;20.10;99.60;101657.56;5032703;28;20025;-70
2022/08/24 01:27:58;;;;;;;12.15;5.47;;;;;;;20.06;99.84;101657.22;5032612;28;20053;-70
2022/08/24 01:30:25;;;;;;;8.93;5.45;;;;;;;19.91;99.75;101667.41;5032596;28;20025;-70
2022/08/24 01:32:56;;;;;;;11.70;5.07;;;;;;;19.90;100.00;101663.16;5033787;28;20029;-70
2022/08/24 01:35:22;;;;;;;9.35;5.35;;;;;;;19.90;100.00;101667.59;5033933;28;20382;-70
2022/08/24 01:37:48;;;;;;;8.90;5.20;;;;;;;19.91;100.00;101664.78;5033743;28;20519;-70
2022/08/24 01:40:14;;;;;;;8.02;5.40;;;;;;;19.93;100.00;101661.91;5033731;28;20074;-68
2022/08/24 01:42:47;;;;;;;10.23;5.55;;;;;;;19.81;100.00;101665.31;5032409;28;20029;-70
2022/08/24 01:45:12;;;;;;;11.97;5.50;;;;;;;19.78;100.00;101662.34;5033683;28;20432;-68
2022/08/24 01:47:37;;;;;;;7.25;5.53;;;;;;;19.71;100.00;101664.28;5033561;28;20280;-70
2022/08/24 01:50:03;;;;;;;9.02;5.70;;;;;;;19.78;100.00;101667.59;5033527;28;20021;-69
2022/08/24 01:52:28;;;;;;;12.63;6.00;;;;;;;19.76;100.00;101673.06;5033419;28;20045;-71
2022/08/24 01:54:54;;;;;;;8.05;5.70;;;;;;;19.76;100.00;101675.69;5033342;28;20020;-71
2022/08/24 01:57:23;;;;;;;10.27;5.85;;;;;;;19.77;100.00;101674.69;5033375;28;20030;-70
2022/08/24 01:59:48;;;;;;;8.30;5.55;;;;;;;19.79;100.00;101672.63;5031661;28;20029;-70
2022/08/24 02:02:20;;;;;;;8.52;5.40;;;;;;;19.74;100.00;101680.38;5033401;28;20068;-69
2022/08/24 02:04:46;;;;;;;9.07;5.95;;;;;;;19.71;100.00;101680.81;5033323;28;20402;-69
2022/08/24 02:07:12;;;;;;;9.68;5.40;;;;;;;19.72;100.00;101687.66;5033279;28;20021;-69
2022/08/24 02:09:37;;;;;;;8.55;6.10;;;;;;;19.63;100.00;101696.84;5031942;28;20021;-69
2022/08/24 02:12:03;;;;;;;7.65;6.07;;;;;;;19.54;100.00;101691.13;5031933;28;20123;-69
2022/08/24 02:14:29;;;;;;;10.50;6.13;;;;;;;19.50;100.00;101689.16;5033251;28;20380;-69
2022/08/24 02:16:55;;;;;;;11.68;6.43;;;;;;;19.53;100.00;101689.50;5031876;28;20483;-69
2022/08/24 02:19:20;;;;;;;9.90;5.78;;;;;;;19.52;100.00;101684.50;5033104;28;20029;-69
2022/08/24 02:21:46;;;;;;;7.95;5.53;;;;;;;19.47;100.00;101689.63;5033229;28;20075;-69
2022/08/24 02:24:11;;;;;;;9.35;6.30;;;;;;;19.39;100.00;101688.94;5033118;28;20076;-70
2022/08/24 02:26:36;;;;;;;9.43;5.35;;;;;;;19.29;100.00;101683.41;5032969;28;20104;-69
2022/08/24 02:29:03;;;;;;;10.40;6.00;;;;;;;19.43;100.00;101691.09;5031810;28;20025;-69
2022/08/24 02:31:28;;;;;;;10.45;5.60;;;;;;;19.44;100.00;101684.81;5031794;28;20500;-69
2022/08/24 02:33:53;;;;;;;7.35;5.20;;;;;;;19.46;100.00;101680.16;5032954;28;20029;-69
2022/08/24 02:36:18;;;;;;;10.38;6.15;;;;;;;19.55;100.00;101684.06;5032439;28;20370;-70
2022/08/24 02:38:44;;;;;;;11.45;7.13;;;;;;;19.58;100.00;101689.66;5030759;28;20032;-69
2022/08/24 02:41:10;;;;;;;9.88;7.53;;;;;;;19.60;100.00;101694.69;5032746;28;20144;-70
2022/08/24 02:43:35;;;;;;;11.82;8.90;;;;;;;19.63;100.00;101685.56;5031804;28;20022;-71
2022/08/24 02:46:01;;;;;;;13.35;8.85;;;;;;;19.66;100.00;101687.78;5031614;28;20168;-69
2022/08/24 02:48:26;;;;;;;13.05;9.05;;;;;;;19.57;100.00;101688.06;5031442;28;20021;-71
2022/08/24 02:50:52;;;;;;;15.82;9.25;;;;;;;19.60;100.00;101694.69;5031513;28;20079;-70
2022/08/24 02:53:19;;;;;;;14.52;8.85;;;;;;;19.59;100.00;101693.88;5032901;28;20156;-70
2022/08/24 02:55:45;;;;;;;15.88;9.15;;;;;;;19.57;100.00;101690.69;5032889;28;20495;-69
2022/08/24 02:58:12;;;;;;;13.18;8.82;;;;;;;19.56;100.00;101690.88;5032771;28;20105;-69
2022/08/24 03:00:40;;;;;;;11.95;7.57;;;;;;;19.48;100.00;101689.41;5032729;28;20021;-69
2022/08/24 03:03:07;;;;;;;11.98;7.95;;;;;;;19.56;100.00;101685.66;5031451;28;20428;-69
2022/08/24 03:05:33;;;;;;;12.68;8.18;;;;;;;19.54;100.00;101692.97;5032791;28;20028;-70
2022/08/24 03:07:59;;;;;;;11.27;7.80;;;;;;;19.43;100.00;101693.72;5032728;28;20029;-69
2022/08/24 03:10:24;;;;;;;12.57;7.60;;;;;;;19.43;100.00;101702.38;5032601;28;20032;-69
2022/08/24 03:12:50;;;;;;;10.52;7.50;;;;;;;19.44;100.00;101701.34;5034487;28;20370;-69
2022/08/24 03:15:17;;;;;;;13.57;7.28;;;;;;;19.41;100.00;101696.56;5036457;28;20108;-70
2022/08/24 03:17:43;;;;;;;12.32;7.40;;;;;;;19.35;100.00;101693.00;5036436;28;20021;-69
2022/08/24 03:20:12;;;;;;;14.20;7.93;;;;;;;19.16;100.00;101673.94;5035122;28;20388;-69
2022/08/24 03:22:39;;;;;;;9.68;6.97;;;;;;;19.21;100.00;101696.03;5036309;28;20116;-71
2022/08/24 03:25:05;;;;;;;8.70;6.97;;;;;;;19.25;100.00;101702.41;5035009;28;20439;-69
2022/08/24 03:27:31;;;;;;;9.77;7.00;;;;;;;19.26;100.00;101693.56;5036107;28;20021;-69
2022/08/24 03:29:56;;;;;;;10.18;7.15;;;;;;;19.24;100.00;101699.00;5034822;28;20033;-70
2022/08/24 03:32:21;;;;;;;8.23;6.38;;;;;;;19.12;100.00;101696.34;5036125;28;20044;-69
2022/08/24 03:34:46;;;;;;;10.55;7.00;;;;;;;19.14;100.00;101693.50;5036089;28;20033;-70
2022/08/24 03:37:12;;;;;;;10.18;7.25;;;;;;;19.10;100.00;101698.41;5035957;28;20381;-69
2022/08/24 03:39:38;;;;;;;12.23;7.40;;;;;;;19.11;100.00;101692.13;5036158;28;20031;-69
2022/08/24 03:42:04;;;;;;;10.45;6.95;;;;;;;19.17;100.00;101685.19;5035966;28;20465;-69
2022/08/24 03:44:29;;;;;;;10.35;6.93;;;;;;;19.17;100.00;101690.44;5035945;28;20025;-69
2022/08/24 03:46:55;;;;;;;8.02;6.78;;;;;;;19.19;100.00;101696.28;5034557;28;20473;-69
2022/08/24 03:49:20;;;;;;;10.43;7.63;;;;;;;19.23;100.00;101686.13;5034550;28;20377;-69
2022/08/24 03:51:46;;;;;;;14.75;7.55;;;;;;;19.29;100.00;101693.91;5035583;28;20072;-69
2022/08/24 03:54:15;;;;;;;16.48;8.38;;;;;;;19.19;100.00;101695.44;5035595;28;20107;-69
2022/08/24 03:56:42;;;;;;;11.40;7.93;;;;;;;19.10;100.00;101700.19;5035959;28;20549;-69
2022/08/24 03:59:09;;;;;;;14.98;8.30;;;;;;;19.12;100.00;101693.72;5035576;28;20048;-70
2022/08/24 04:01:35;;;;;;;10.98;7.68;;;;;;;19.11;100.00;101696.56;5035697;28;20021;-69
2022/08/24 04:04:01;;;;;;;10.32;6.90;;;;;;;19.00;100.00;101698.09;5035494;28;20021;-70
2022/08/24 04:06:27;;;;;;;12.43;7.03;;;;;;;18.83;100.00;101684.00;5035436;28;20395;-71
2022/08/24 04:08:52;;;;;;;8.02;6.38;;;;;;;18.94;100.00;101699.78;5034214;28;20079;-70
2022/08/24 04:11:21;;;;;;;10.68;6.60;;;;;;;18.99;100.00;101709.63;5035333;28;20057;-70
2022/08/24 04:13:48;;;;;;;10.65;7.22;;;;;;;19.05;100.00;101707.94;5035412;28;20025;-69
2022/08/24 04:16:17;;;;;;;14.23;9.43;;;;;;;19.13;100.00;101694.50;5035235;28;20040;-70
2022/08/24 04:18:43;;;;;;;10.23;7.72;;;;;;;19.17;100.00;101701.72;5035009;28;20057;-69
2022/08/24 04:21:22;;;;;;;10.98;8.02;;;;;;;19.06;100.00;101705.09;5035225;28;20021;-69
2022/08/24 04:23:48;;;;;;;11.05;7.80;;;;;;;18.97;100.00;101709.03;5034693;28;20037;-69
2022/08/24 04:26:15;;;;;;;13.05;8.32;;;;;;;18.89;100.00;101712.72;5033891;28;20034;-69
2022/08/24 04:28:40;;;;;;;13.55;7.45;;;;;;;18.79;100.00;101709.84;5035011;28;20017;-69
2022/08/24 04:31:06;;;;;;;12.75;7.10;;;;;;;18.79;100.00;101715.09;5035239;28;20106;-70
2022/08/24 04:33:32;;;;;;;10.70;6.60;;;;;;;18.74;100.00;101712.31;5034924;28;20122;-69
2022/08/24 04:35:58;;;;;;;7.88;6.20;;;;;;;18.81;100.00;101715.66;5034914;28;20108;-70
2022/08/24 04:38:23;;;;;;;8.32;6.18;;;;;;;18.90;100.00;101713.53;5034800;28;20079;-69
2022/08/24 04:40:49;;;;;;;12.23;6.53;;;;;;;18.78;100.00;101702.19;5033484;28;20039;-69
2022/08/24 04:43:16;;;;;;;9.85;6.75;;;;;;;18.84;100.00;101709.16;5034744;28;20119;-69
2022/08/24 04:45:43;;;;;;;10.43;6.50;;;;;;;18.83;100.00;101713.63;5034727;28;20109;-69
2022/08/24 04:48:10;;;;;;;9.00;6.50;;;;;;;18.78;100.00;101708.22;5033440;28;20025;-70
2022/08/24 04:50:41;;;;;;;7.57;6.10;;;;;;;18.74;100.00;101722.78;5033237;28;20076;-68
2022/08/24 04:53:07;;;;;;;12.50;6.60;;;;;;;18.69;100.00;101717.38;5033811;28;20058;-69
2022/08/24 04:55:42;;;;;;;9.23;6.90;;;;;;;18.78;100.00;101721.31;5033153;28;20485;-69
2022/08/24 04:58:08;;;;;;;9.45;6.60;;;;;;;18.83;100.00;101718.06;5034538;28;20060;-69
2022/08/24 05:00:33;;;;;;;9.13;6.28;;;;;;;18.89;100.00;101719.78;5034452;28;20104;-69
2022/08/24 05:02:59;;;;;;;8.73;6.25;;;;;;;18.88;100.00;101720.81;5034436;28;20087;-69
2022/08/24 05:05:24;;;;;;;10.43;6.45;;;;;;;18.90;100.00;101722.22;5033129;28;20473;-70
2022/08/24 05:07:49;;;;;;;8.88;6.53;;;;;;;18.94;100.00;101723.34;5032873;28;20108;-69
2022/08/24 05:10:14;;;;;;;9.50;6.43;;;;;;;18.90;100.00;101726.63;5032215;28;20387;-70
2022/08/24 05:12:40;;;;;;;10.80;6.80;;;;;;;18.89;100.00;101730.28;5033608;28;20053;-69
2022/08/24 05:15:06;;;;;;;11.38;6.82;;;;;;;18.99;100.00;101730.56;5033565;28;20029;-69
2022/08/24 05:17:31;;;;;;;11.18;6.93;;;;;;;19.08;100.00;101726.63;5032243;28;20025;-69
2022/08/24 05:19:57;;;;;;;13.63;7.30;;;;;;;19.20;100.00;101724.06;5033707;28;20100;-70
2022/08/24 05:22:23;;;;;;;12.63;7.15;;;;;;;19.20;100.00;101736.38;5032921;28;20116;-69
2022/08/24 05:24:49;;;;;;;10.95;7.25;;;;;;;19.19;100.00;101735.56;5034118;28;20076;-70
2022/08/24 05:27:16;;;;;;;19.25;7.00;;;;;;;19.29;99.98;101735.81;5034447;28;20025;-69
2022/08/24 05:29:41;;;;;;;10.65;6.82;;;;;;;19.28;100.00;101744.72;5034378;28;20061;-70
2022/08/24 05:32:06;;;;;;;10.05;6.88;;;;;;;19.31;99.97;101739.03;5034333;28;20061;-69
2022/08/24 05:34:32;;;;;;;9.60;6.50;;;;;;;19.39;99.40;101738.72;5032216;28;20025;-69
2022/08/24 05:36:57;;;;;;;12.30;7.13;;;;;;;19.47;99.27;101744.66;5032853;28;20021;-69
2022/08/24 05:39:23;;;;;;;11.07;7.30;;;;;;;19.54;98.69;101734.91;5034211;28;20056;-69
2022/08/24 05:41:48;;;;;;;10.77;7.88;;;;;;;19.65;98.61;101738.56;5033146;28;20029;-71
2022/08/24 05:44:15;;;;;;;12.27;9.00;;;;;;;19.77;98.81;101744.69;5039687;28;20025;-71
2022/08/24 05:46:41;;;;;;;13.35;9.63;;;;;;;19.82;98.52;101740.38;5045100;28;20415;-70
2022/08/24 05:49:08;;;;;;;17.63;9.82;;;;;;;19.84;98.93;101746.16;5047327;28;20040;-70
2022/08/24 05:51:34;;;;;;;16.55;10.73;;;;;;;19.90;98.34;101736.59;5046817;28;20132;-73
2022/08/24 05:53:59;;;;;;;14.23;10.60;;;;;;;20.15;97.50;101743.50;5045975;28;20034;-71
2022/08/24 05:56:26;;;;;;;13.80;9.68;;;;;;;20.23;97.27;101743.94;5047692;28;20021;-70
2022/08/24 05:58:51;;;;;;;15.57;10.00;;;;;;;20.28;96.20;101733.56;5046476;28;20021;-72
2022/08/24 06:01:20;;;;;;;14.45;9.27;;;;;;;20.50;94.77;101743.47;5047630;28;20060;-72
2022/08/24 06:03:48;;;;;;;13.25;8.57;;;;;;;21.28;91.08;101746.63;5040381;28;20384;-72
2022/08/24 06:06:15;;;;;;;19.13;8.52;;;;;;;26.27;67.73;101748.47;5037295;28;20029;-69
2022/08/24 06:08:44;;;;;;;14.02;7.75;;;;;;;28.20;56.88;101749.41;5036281;28;20039;-70
2022/08/24 06:11:11;;;;;;;10.18;6.32;;;;;;;29.19;52.22;101752.16;5036089;28;20473;-70
2022/08/24 06:13:36;;;;;;;12.95;6.90;;;;;;;25.44;64.09;101751.41;5034064;28;20091;-69
2022/08/24 06:16:07;;;;;;;11.75;7.35;;;;;;;27.43;59.62;101750.84;5035444;28;20029;-69
2022/08/24 06:18:33;;;;;;;11.60;6.97;;;;;;;30.64;50.86;101745.88;5033145;28;20021;-70
2022/08/24 06:21:13;;;;;;;11.85;7.00;;;;;;;31.43;46.73;101754.25;5032941;28;20526;-70
2022/08/24 06:23:40;;;;;;;11.93;6.88;;;;;;;31.26;46.66;101748.78;5034300;28;20034;-71
2022/08/24 06:28:51;;;;;;;12.95;7.70;;;;;;;31.07;46.92;101756.16;5033968;28;20036;-71
2022/08/24 06:31:17;;;;;;;12.10;7.80;;;;;;;31.73;45.12;101759.13;5032106;28;20443;-70
2022/08/24 06:33:42;;;;;;;10.85;7.63;;;;;;;32.69;43.82;101762.97;5033351;28;20124;-70
2022/08/24 06:36:07;;;;;;;13.27;7.72;;;;;;;32.47;43.67;101753.16;5033149;28;20029;-71
2022/08/24 06:38:33;;;;;;;11.82;7.43;;;;;;;32.43;43.83;101755.66;5033135;28;20037;-70
2022/08/24 06:40:58;;;;;;;14.48;8.00;;;;;;;32.92;42.38;101761.72;5032966;28;20079;-70
2022/08/24 06:43:24;;;;;;;10.88;7.72;;;;;;;33.24;41.73;101760.44;5033151;28;20029;-70
2022/08/24 06:45:50;;;;;;;12.85;7.80;;;;;;;33.52;41.20;101762.78;5033238;28;20028;-70
2022/08/24 06:48:17;;;;;;;17.08;8.38;;;;;;;33.29;40.98;101761.38;5035755;28;20053;-71
2022/08/24 06:50:42;;;;;;;14.75;7.60;;;;;;;33.09;41.93;101758.28;5035573;28;20029;-70
2022/08/24 06:53:07;;;;;;;11.88;7.75;;;;;;;33.54;40.26;101759.78;5036791;28;20046;-71
2022/08/24 06:55:33;;;;;;;11.43;7.32;;;;;;;34.06;39.60;101755.03;5036834;28;20469;-70
2022/08/24 06:57:58;;;;;;;13.23;7.57;;;;;;;33.76;40.25;101761.47;5036799;28;20021;-71
2022/08/24 07:00:24;;;;;;;13.85;7.65;;;;;;;33.04;41.44;101761.09;5036771;28;20021;-71
2022/08/24 07:02:50;;;;;;;15.85;7.70;;;;;;;31.46;45.87;101755.53;5036680;28;20053;-71
2022/08/24 07:05:15;;;;;;;13.40;8.13;;;;;;;32.98;41.92;101759.66;5035463;28;20017;-70
2022/08/24 07:07:40;;;;;;;15.15;8.40;;;;;;;33.89;40.09;101755.88;5036696;28;20436;-71
2022/08/24 07:10:10;;;;;;;11.87;7.77;;;;;;;35.36;37.98;101758.69;5035242;28;20035;-70
2022/08/24 07:12:36;;;;;;;14.77;7.95;;;;;;;34.74;37.81;101760.31;5036480;28;20271;-70
2022/08/24 07:15:03;;;;;;;13.00;7.75;;;;;;;34.67;38.46;101759.25;5035359;28;20024;-71
2022/08/24 07:17:29;;;;;;;14.15;7.82;;;;;;;35.60;36.67;101757.19;5035027;28;20068;-70
2022/08/24 07:19:54;;;;;;;13.25;7.70;;;;;;;35.65;35.82;101755.06;5035157;28;20436;-71
2022/08/24 07:22:19;;;;;;;10.05;7.10;;;;;;;35.73;35.96;101766.03;5036233;28;20025;-71
2022/08/24 07:24:45;;;;;;;9.33;7.43;;;;;;;35.68;36.59;101758.97;5035041;28;20036;-70
2022/08/24 07:27:11;;;;;;;14.68;7.00;;;;;;;35.93;35.79;101763.22;5036212;28;20487;-71
2022/08/24 07:29:38;;;;;;;11.82;7.53;;;;;;;35.37;36.89;101762.16;5036125;28;20038;-71
2022/08/24 07:32:04;;;;;;;16.50;7.15;;;;;;;36.12;35.64;101757.31;5036095;28;20023;-71
2022/08/24 07:34:29;;;;;;;12.02;6.70;;;;;;;34.26;39.05;101774.19;5035995;28;20033;-71
2022/08/24 07:36:55;;;;;;;14.30;6.72;;;;;;;32.73;41.75;101766.56;5036037;28;20461;-71
2022/08/24 07:39:20;;;;;;;12.48;7.30;;;;;;;32.43;42.69;101773.59;5034691;28;20029;-70
2022/08/24 07:41:46;;;;;;;14.93;6.97;;;;;;;32.14;43.22;101764.22;5035807;28;20112;-70
2022/08/24 07:44:12;;;;;;;10.40;6.53;;;;;;;32.93;42.05;101765.16;5034463;28;20079;-70
2022/08/24 07:46:39;;;;;;;11.85;6.75;;;;;;;33.68;40.64;101769.19;5035860;28;20373;-70
2022/08/24 07:49:06;;;;;;;11.15;6.75;;;;;;;34.35;39.06;101774.91;5035753;28;20026;-70
2022/08/24 07:51:32;;;;;;;11.23;6.60;;;;;;;34.93;37.86;101775.16;5035033;28;20485;-71
2022/08/24 07:54:00;;;;;;;14.70;6.95;;;;;;;33.80;38.96;101775.78;5035575;28;20428;-71
2022/08/24 07:56:27;;;;;;;11.65;6.25;;;;;;;34.87;38.01;101784.53;5035400;28;20469;-71
2022/08/24 07:58:53;;;;;;;13.10;6.40;;;;;;;34.10;39.11;101777.44;5035193;28;20389;-70
2022/08/24 08:01:20;;;;;;;11.23;6.75;;;;;;;33.91;38.87;101782.38;5035496;28;20013;-70
2022/08/24 08:03:46;;;;;;;13.68;6.10;;;;;;;34.99;37.78;101785.38;5035403;28;20445;-70
2022/08/24 08:06:11;;;;;;;14.60;6.80;;;;;;;34.31;38.07;101790.09;5035513;28;20055;-70
2022/08/24 08:08:39;;;;;;;15.02;6.80;;;;;;;33.25;40.15;101785.34;5035345;28;20175;-70
2022/08/24 08:11:05;;;;;;;11.98;5.95;;;;;;;33.57;39.96;101785.94;5035349;28;20052;-70
2022/08/24 08:13:31;;;;;;;11.57;5.70;;;;;;;34.16;38.96;101791.44;5035392;28;20495;-70
2022/08/24 08:15:58;;;;;;;10.85;5.80;;;;;;;33.84;39.64;101790.13;5035331;28;20029;-70
2022/08/24 08:18:24;;;;;;;13.93;6.57;;;;;;;34.00;39.02;101798.41;5035296;28;20032;-70
2022/08/24 08:20:50;;;;;;;10.75;6.10;;;;;;;32.83;41.07;101800.25;5035321;28;20045;-70
2022/08/24 08:26:00;;;;;;;8.75;5.30;;;;;;;31.96;43.14;101800.00;5035080;28;20044;-70
2022/08/24 08:28:31;;;;;;;10.27;5.10;;;;;;;31.71;44.27;101794.19;5033663;28;20337;-70
2022/08/24 08:31:00;;;;;;;10.07;4.45;;;;;;;31.11;45.77;101794.53;5033481;28;20513;-70
2022/08/24 08:33:26;;;;;;;7.93;4.40;;;;;;;30.49;47.21;101803.00;5033617;28;20051;-70
2022/08/24 08:36:00;;;;;;;8.75;4.50;;;;;;;30.73;46.69;101802.78;5034893;28;20100;-71
2022/08/24 08:38:26;;;;;;;7.65;3.60;;;;;;;30.89;47.30;101800.59;5033659;28;20422;-70
2022/08/24 08:41:41;;;;;;;6.95;4.30;;;;;;;31.14;45.49;101799.25;5034696;28;20044;-70
2022/08/24 08:44:33;;;;;;;9.75;4.05;;;;;;;31.51;46.09;101805.38;5034842;28;20082;-70
2022/08/24 08:47:20;;;;;;;7.53;3.35;;;;;;;30.68;46.96;101808.22;5034721;28;20164;-70
2022/08/24 08:50:02;;;;;;;5.95;3.17;;;;;;;31.11;46.22;101807.88;5033347;28;20091;-71
2022/08/24 08:52:39;;;;;;;5.70;3.00;;;;;;;30.82;47.37;101809.03;5034423;28;20073;-71
2022/08/24 08:55:16;;;;;;;8.95;3.38;;;;;;;31.27;45.60;101802.97;5034523;28;20111;-70
2022/08/24 08:58:05;;;;;;;5.72;2.80;;;;;;;30.62;47.23;101809.41;5034602;28;20473;-70
2022/08/24 09:00:54;;;;;;;7.60;3.70;;;;;;;30.57;47.54;101812.97;5033174;28;20029;-70
2022/08/24 09:03:38;;;;;;;5.70;3.35;;;;;;;31.22;46.55;101809.22;5033062;28;20025;-70
2022/08/24 09:06:20;;;;;;;5.88;2.80;;;;;;;30.45;47.31;101802.00;5034359;28;20152;-71
2022/08/24 09:09:09;;;;;;;7.90;3.05;;;;;;;30.89;47.00;101806.72;5034272;28;20358;-70
2022/08/24 09:11:41;;;;;;;10.48;3.40;;;;;;;30.91;46.75;101799.22;5034256;28;20022;-70
2022/08/24 09:14:13;;;;;;;6.72;2.80;;;;;;;31.00;46.64;101809.97;5034081;28;20029;-70
2022/08/24 09:16:47;;;;;;;6.67;3.53;;;;;;;31.11;46.01;101808.66;5032898;28;20036;-69
2022/08/24 09:19:53;;;;;;;7.05;2.83;;;;;;;30.88;46.37;101804.38;5034065;28;20090;-69
2022/08/24 09:22:20;;;;;;;8.90;3.40;;;;;;;30.13;48.29;101823.09;5034078;28;20021;-69
2022/08/24 09:24:51;;;;;;;7.82;3.40;;;;;;;30.61;48.42;101813.16;5033896;28;20021;-69
2022/08/24 09:27:38;;;;;;;5.55;2.35;;;;;;;31.20;47.15;101806.06;5033889;28;20116;-69
2022/08/24 09:30:12;;;;;;;7.15;2.45;;;;;;;31.15;45.82;101806.16;5034046;28;20236;-69
2022/08/24 09:32:58;;;;;;;9.55;3.40;;;;;;;30.41;47.63;101804.47;5033808;28;20043;-69
2022/08/24 09:35:51;;;;;;;7.20;3.97;;;;;;;30.79;46.62;101810.41;5033803;28;20018;-69
2022/08/24 09:38:49;;;;;;;10.25;3.47;;;;;;;30.50;47.27;101816.03;5033806;28;20381;-68
2022/08/24 09:41:26;;;;;;;8.93;3.80;;;;;;;30.95;47.60;101807.41;5033863;28;20021;-69
2022/08/24 09:44:30;;;;;;;7.15;3.30;;;;;;;30.95;46.85;101810.84;5032390;28;20124;-69
2022/08/24 09:47:20;;;;;;;7.60;3.42;;;;;;;30.78;46.76;101803.44;5033532;28;20059;-69
2022/08/24 09:50:18;;;;;;;10.15;3.92;;;;;;;30.94;47.11;101803.94;5032394;28;20082;-69
2022/08/24 09:53:06;;;;;;;10.43;4.63;;;;;;;30.70;47.94;101801.50;5020239;28;20057;-69
2022/08/24 09:55:50;;;;;;;9.82;3.80;;;;;;;31.86;45.32;101803.69;5033456;28;20029;-70
2022/08/24 09:58:40;;;;;;;6.05;3.67;;;;;;;31.80;45.15;101807.59;5033491;28;20048;-70
2022/08/24 10:01:18;;;;;;;7.82;5.32;;;;;;;30.75;47.14;101797.91;5032159;28;20019;-70
2022/08/24 10:04:20;;;;;;;7.07;3.80;;;;;;;32.00;45.81;101800.97;5033477;28;20083;-70
2022/08/24 10:07:03;;;;;;;11.05;4.00;;;;;;;32.53;44.27;101802.75;5033581;28;20499;-70
2022/08/24 10:09:47;;;;;;;8.60;4.65;;;;;;;31.91;45.27;101793.69;5031987;28;20025;-70
2022/08/24 10:12:42;;;;;;;6.38;3.70;;;;;;;32.26;44.40;101783.13;5033290;28;20082;-70
2022/08/24 10:15:13;;;;;;;12.38;4.20;;;;;;;32.51;43.69;101788.88;5032684;28;20041;-70
2022/08/24 10:18:03;;;;;;;6.03;3.40;;;;;;;31.36;46.23;101793.97;5033233;28;20083;-69
2022/08/24 10:20:50;;;;;;;6.80;3.30;;;;;;;32.12;44.22;101796.59;5031378;28;20021;-70
2022/08/24 10:23:31;;;;;;;10.60;3.20;;;;;;;32.41;43.50;101792.63;5031930;28;20035;-70
2022/08/24 10:26:20;;;;;;;4.53;2.72;;;;;;;32.25;43.17;101792.22;5033208;28;20017;-70
2022/08/24 10:29:04;;;;;;;8.32;3.03;;;;;;;31.51;43.84;101781.34;5032060;28;20029;-70
2022/08/24 10:31:47;;;;;;;4.22;2.10;;;;;;;32.24;42.81;101784.53;5033022;28;20080;-70
2022/08/24 10:34:56;;;;;;;5.28;2.50;;;;;;;31.85;42.83;101784.22;5033109;28;20025;-70
2022/08/24 10:39:39;;;;;;;5.22;2.20;;;;;;;31.95;42.58;101785.06;5031780;28;20029;-70
2022/08/24 10:40:51;;;;;;;8.98;2.10;;;;;;;32.81;41.81;101782.63;5032909;28;20030;-70
2022/08/24 10:43:38;;;;;;;7.10;2.50;;;;;;;32.40;42.50;101766.97;5032941;28;20408;-70
2022/08/24 10:46:13;;;;;;;5.55;2.00;;;;;;;32.48;41.49;101774.22;5033066;28;20049;-69
2022/08/24 10:48:55;;;;;;;5.15;2.33;;;;;;;31.82;42.77;101767.97;5032808;28;20370;-68
2022/08/24 10:51:49;;;;;;;6.57;2.20;;;;;;;30.72;44.68;101766.50;5032559;28;20018;-68
2022/08/24 10:54:18;;;;;;;6.50;2.28;;;;;;;31.92;42.99;101765.84;5032676;28;20041;-69
2022/08/24 10:57:05;;;;;;;4.43;1.90;;;;;;;33.35;41.56;101760.13;5032746;28;20036;-68
2022/08/24 11:00:06;;;;;;;3.20;1.90;;;;;;;32.65;40.83;101768.13;5032870;28;20022;-70
2022/08/24 11:02:40;;;;;;;3.25;1.60;;;;;;;31.63;42.84;101763.66;5018182;28;20029;-69
2022/08/24 11:05:27;;;;;;;2.35;1.30;;;;;;;33.30;40.19;101755.72;5032695;28;20032;-70
2022/08/24 11:08:03;;;;;;;3.53;1.52;;;;;;;32.78;39.59;101763.75;5032699;28;20127;-71
2022/08/24 11:10:34;;;;;;;5.90;1.63;;;;;;;32.66;39.75;101759.03;5032738;28;20040;-70
2022/08/24 11:13:23;;;;;;;3.60;1.70;;;;;;;33.48;39.19;101759.91;5031332;28;20115;-70
2022/08/24 11:15:56;;;;;;;3.38;1.60;;;;;;;33.38;38.83;101756.81;5031332;28;20045;-70
2022/08/24 11:18:22;;;;;;;5.20;1.95;;;;;;;32.89;39.45;101759.66;5032632;28;20105;-69
2022/08/24 11:20:51;;;;;;;3.28;2.00;;;;;;;32.90;39.10;101761.22;5030566;28;20052;-69
2022/08/24 11:23:20;;;;;;;5.80;2.03;;;;;;;31.63;42.57;101768.22;5031374;28;20033;-69
2022/08/24 11:26:02;;;;;;;6.03;1.83;;;;;;;32.76;40.29;101764.06;5032190;28;20402;-69
2022/08/24 11:28:37;;;;;;;3.28;1.80;;;;;;;33.38;39.54;101759.50;5030801;28;20029;-70
2022/08/24 11:31:03;;;;;;;4.00;1.70;;;;;;;33.65;40.11;101755.66;5032410;28;20423;-69
2022/08/24 11:33:49;;;;;;;2.88;1.88;;;;;;;33.09;40.79;101757.47;5033877;28;20034;-69
2022/08/24 11:36:22;;;;;;;5.97;2.22;;;;;;;33.33;40.82;101752.41;5036107;28;20033;-71
2022/08/24 11:38:48;;;;;;;4.40;2.10;;;;;;;33.05;41.05;101751.16;5036118;28;20033;-70
2022/08/24 11:41:31;;;;;;;3.85;1.98;;;;;;;32.73;41.52;101756.66;5034799;28;20044;-70